Time;durP1;ratioP1;P1;durP2;ratioP2;P2;SDS_P1;SDS_P2;PMS_P1;PMS_P2;Temp;Humidity;BMP_temperature;BMP_pressure;BME280_temperature;BME280_humidity;BME280_pressure;Samples;Min_cycle;Max_cycle;Signal;HPM_P1;HPM_P2
2020/12/13 00:01:04;;;;;;;18.13;8.40;;;8.10;95.60;;;;;;4826743;29;20125;-76
2020/12/13 00:03:31;;;;;;;17.80;6.60;;;8.10;95.60;;;;;;4843887;29;20046;-77
2020/12/13 00:05:57;;;;;;;18.43;8.30;;;8.00;95.60;;;;;;4812635;29;20046;-77
2020/12/13 00:08:26;;;;;;;18.60;7.83;;;8.00;95.60;;;;;;4827710;29;20106;-77
2020/12/13 00:10:55;;;;;;;22.17;8.77;;;8.00;95.70;;;;;;4827782;29;20054;-77
2020/12/13 00:13:21;;;;;;;23.67;9.50;;;8.00;95.70;;;;;;4827435;29;20098;-78
2020/12/13 00:15:47;;;;;;;28.27;11.10;;;8.10;95.70;;;;;;4811797;29;20054;-77
2020/12/13 00:18:14;;;;;;;32.93;13.03;;;8.00;95.60;;;;;;4814410;29;20071;-77
2020/12/13 00:20:40;;;;;;;30.13;12.47;;;8.00;95.60;;;;;;4828220;29;20049;-81
2020/12/13 00:23:07;;;;;;;28.67;11.80;;;7.90;95.60;;;;;;4823326;29;20062;-78
2020/12/13 00:25:33;;;;;;;37.93;15.03;;;8.00;95.60;;;;;;4840196;29;20506;-81
2020/12/13 00:28:00;;;;;;;32.37;14.50;;;8.00;95.60;;;;;;4809461;29;20054;-78
2020/12/13 00:30:26;;;;;;;39.13;15.83;;;7.90;95.60;;;;;;4823238;29;20125;-81
2020/12/13 00:32:53;;;;;;;29.73;13.57;;;7.90;95.60;;;;;;4797485;29;20110;-78
2020/12/13 00:35:19;;;;;;;31.53;11.30;;;7.90;95.60;;;;;;4814874;29;20046;-81
2020/12/13 00:37:46;;;;;;;27.30;11.70;;;7.90;95.60;;;;;;4797228;29;20054;-78
2020/12/13 00:40:12;;;;;;;25.83;10.17;;;7.90;95.70;;;;;;4812255;29;20487;-78
2020/12/13 00:42:38;;;;;;;22.90;8.83;;;7.90;95.60;;;;;;4811813;29;20436;-79
2020/12/13 00:45:05;;;;;;;17.47;7.97;;;7.90;95.70;;;;;;4782109;29;20054;-80
2020/12/13 00:47:32;;;;;;;19.43;8.43;;;7.90;95.70;;;;;;4842445;29;20494;-80
2020/12/13 00:49:59;;;;;;;18.13;7.70;;;7.90;95.60;;;;;;4827709;29;20074;-79
2020/12/13 00:52:27;;;;;;;17.67;7.20;;;8.00;95.70;;;;;;4826960;29;20514;-80
2020/12/13 00:54:54;;;;;;;22.27;9.03;;;7.90;95.60;;;;;;4796933;29;20090;-78
2020/12/13 00:57:24;;;;;;;25.60;9.60;;;7.90;95.60;;;;;;4827244;29;20046;-79
2020/12/13 00:59:54;;;;;;;19.20;8.27;;;7.90;95.60;;;;;;4826794;29;20066;-80
2020/12/13 01:02:22;;;;;;;17.50;6.63;;;7.90;95.60;;;;;;4826502;29;20050;-78
2020/12/13 01:04:49;;;;;;;19.37;8.57;;;7.90;95.70;;;;;;4782266;29;20423;-77
2020/12/13 01:07:16;;;;;;;16.13;6.77;;;7.90;95.60;;;;;;4826729;29;20057;-81
2020/12/13 01:09:42;;;;;;;18.03;6.77;;;7.90;95.60;;;;;;4826924;29;20073;-81
2020/12/13 01:12:09;;;;;;;16.20;6.67;;;7.90;95.70;;;;;;4826697;29;20050;-77
2020/12/13 01:14:35;;;;;;;17.93;7.17;;;7.90;95.70;;;;;;4841728;29;20125;-82
2020/12/13 01:17:02;;;;;;;13.93;6.07;;;7.90;95.70;;;;;;4826594;29;20411;-81
2020/12/13 01:19:28;;;;;;;14.70;5.90;;;7.90;95.70;;;;;;4826602;29;20053;-81
2020/12/13 01:21:56;;;;;;;18.13;6.97;;;8.00;95.70;;;;;;4811072;29;20050;-81
2020/12/13 01:24:23;;;;;;;14.97;6.53;;;7.90;95.60;;;;;;4825378;29;20064;-78
2020/12/13 01:26:50;;;;;;;17.80;7.60;;;7.90;95.60;;;;;;4798409;29;20788;-77
2020/12/13 01:29:16;;;;;;;24.67;11.07;;;7.90;95.60;;;;;;4826325;29;20046;-81
2020/12/13 01:31:45;;;;;;;24.80;11.90;;;7.90;95.60;;;;;;4811026;29;20049;-77
2020/12/13 01:34:12;;;;;;;24.07;9.90;;;7.90;95.60;;;;;;4797531;29;20041;-78
2020/12/13 01:36:38;;;;;;;24.37;10.27;;;7.90;95.60;;;;;;4826633;29;20049;-78
2020/12/13 01:39:05;;;;;;;20.87;8.47;;;7.90;95.50;;;;;;4796208;29;20074;-78
2020/12/13 01:41:31;;;;;;;23.00;9.57;;;7.90;95.50;;;;;;4821779;29;21728;-79
2020/12/13 01:44:03;;;;;;;24.20;10.53;;;7.90;95.50;;;;;;4807950;29;20058;-78
2020/12/13 01:46:32;;;;;;;22.45;8.98;;;7.90;95.50;;;;;;4809136;29;20046;-76
2020/12/13 01:49:05;;;;;;;20.83;8.43;;;7.90;95.50;;;;;;4824215;29;20522;-76
2020/12/13 01:52:06;;;;;;;19.75;8.18;;;7.90;95.50;;;;;;4823420;29;20048;-76
2020/12/13 01:54:35;;;;;;;20.17;8.33;;;7.90;95.60;;;;;;4834977;29;20038;-76
2020/12/13 01:57:02;;;;;;;17.20;7.20;;;7.90;95.60;;;;;;4824160;29;20046;-76
2020/12/13 01:59:31;;;;;;;17.97;8.67;;;7.90;95.60;;;;;;4816366;29;20451;-76
2020/12/13 02:02:03;;;;;;;17.97;8.27;;;7.90;95.80;;;;;;4820951;29;20069;-76
2020/12/13 02:04:34;;;;;;;24.27;7.93;;;7.90;95.50;;;;;;4810645;29;20567;-76
2020/12/13 02:07:03;;;;;;;19.73;7.23;;;7.90;95.50;;;;;;4826301;29;20050;-76
2020/12/13 02:09:29;;;;;;;18.27;8.17;;;7.90;95.50;;;;;;4834956;29;20098;-76
2020/12/13 02:11:56;;;;;;;16.27;6.87;;;7.90;95.50;;;;;;4826111;29;20085;-76
2020/12/13 02:14:22;;;;;;;18.70;7.17;;;7.90;95.60;;;;;;4795473;29;20065;-76
2020/12/13 02:16:51;;;;;;;18.23;7.53;;;7.90;95.60;;;;;;4814759;29;20439;-77
2020/12/13 02:19:18;;;;;;;18.73;7.70;;;7.90;95.50;;;;;;4825325;29;20041;-76
2020/12/13 02:21:46;;;;;;;21.43;8.87;;;7.90;95.50;;;;;;4809234;29;20081;-76
2020/12/13 02:24:14;;;;;;;20.57;8.63;;;7.90;95.50;;;;;;4839462;29;20056;-77
2020/12/13 02:26:42;;;;;;;19.60;7.33;;;7.90;95.50;;;;;;4799630;29;20098;-76
2020/12/13 02:29:09;;;;;;;17.53;6.23;;;7.90;95.50;;;;;;4810486;29;20049;-76
2020/12/13 02:31:36;;;;;;;15.43;6.67;;;7.90;95.50;;;;;;4825897;29;20447;-77
2020/12/13 02:34:04;;;;;;;12.33;5.50;;;7.90;95.50;;;;;;4825693;29;20041;-76
2020/12/13 02:36:31;;;;;;;15.60;6.27;;;8.00;95.50;;;;;;4810289;29;20098;-76
2020/12/13 02:38:59;;;;;;;11.03;4.27;;;8.00;95.50;;;;;;4815253;29;20934;-77
2020/12/13 02:41:25;;;;;;;12.10;4.60;;;8.00;95.50;;;;;;4818590;29;20034;-77
2020/12/13 02:43:52;;;;;;;10.83;3.70;;;8.00;95.50;;;;;;4842508;29;20054;-76
2020/12/13 02:46:18;;;;;;;13.30;5.30;;;8.00;95.60;;;;;;4816361;29;20049;-76
2020/12/13 02:48:45;;;;;;;15.87;5.37;;;8.00;95.60;;;;;;4814308;29;20422;-76
2020/12/13 02:51:11;;;;;;;11.83;4.03;;;8.00;95.50;;;;;;4831982;29;20110;-76
2020/12/13 02:53:38;;;;;;;12.60;5.00;;;8.00;95.50;;;;;;4847002;29;20125;-77
2020/12/13 02:56:04;;;;;;;15.90;5.30;;;8.00;95.50;;;;;;4831267;29;20136;-76
2020/12/13 02:58:31;;;;;;;12.50;5.03;;;8.00;95.50;;;;;;4831797;29;20435;-76
2020/12/13 03:00:58;;;;;;;12.20;5.40;;;8.10;95.50;;;;;;4816959;29;20102;-76
2020/12/13 03:03:25;;;;;;;14.40;5.30;;;8.10;95.50;;;;;;4816276;29;20070;-76
2020/12/13 03:05:52;;;;;;;13.20;4.63;;;8.10;95.50;;;;;;4815857;29;20106;-78
2020/12/13 03:08:18;;;;;;;12.07;4.73;;;8.10;95.50;;;;;;4800097;29;20136;-78
2020/12/13 03:10:44;;;;;;;11.87;4.47;;;8.10;95.70;;;;;;4844773;29;20068;-79
2020/12/13 03:13:11;;;;;;;12.13;4.53;;;8.10;95.50;;;;;;4805683;29;20060;-78
2020/12/13 03:15:38;;;;;;;13.43;5.30;;;8.10;95.50;;;;;;4830231;29;20073;-79
2020/12/13 03:18:04;;;;;;;13.43;4.47;;;8.10;95.40;;;;;;4830786;29;20133;-79
2020/12/13 03:20:30;;;;;;;11.43;5.20;;;8.10;95.40;;;;;;4801463;29;20110;-79
2020/12/13 03:22:57;;;;;;;15.50;5.43;;;8.10;95.40;;;;;;4816285;29;20050;-79
2020/12/13 03:25:24;;;;;;;12.77;5.60;;;8.10;95.40;;;;;;4846664;29;20049;-78
2020/12/13 03:27:51;;;;;;;14.93;4.63;;;8.20;95.40;;;;;;4831163;29;20078;-79
2020/12/13 03:30:17;;;;;;;14.03;5.50;;;8.10;95.40;;;;;;4831434;29;20471;-79
2020/12/13 03:32:44;;;;;;;11.93;4.73;;;8.10;95.40;;;;;;4813135;29;20046;-78
2020/12/13 03:35:10;;;;;;;13.43;5.37;;;8.20;95.40;;;;;;4815154;29;20091;-78
2020/12/13 03:37:36;;;;;;;14.23;4.87;;;8.10;95.40;;;;;;4830009;29;20049;-79
2020/12/13 03:40:03;;;;;;;12.30;4.73;;;8.10;95.40;;;;;;4815952;29;20041;-79
2020/12/13 03:42:29;;;;;;;13.87;5.17;;;8.10;95.40;;;;;;4831673;29;20110;-79
2020/12/13 03:44:56;;;;;;;15.67;4.90;;;8.20;95.40;;;;;;4831614;29;20053;-78
2020/12/13 03:47:22;;;;;;;12.77;4.20;;;8.20;95.40;;;;;;4823915;29;20064;-78
2020/12/13 03:49:49;;;;;;;9.83;3.50;;;8.20;95.40;;;;;;4797299;29;20088;-79
2020/12/13 03:52:16;;;;;;;10.83;4.53;;;8.20;95.40;;;;;;4828263;29;20137;-78
2020/12/13 03:54:42;;;;;;;10.77;4.07;;;8.20;95.40;;;;;;4797438;29;20043;-79
2020/12/13 03:57:09;;;;;;;12.73;5.60;;;8.20;95.40;;;;;;4813426;29;20050;-79
2020/12/13 03:59:35;;;;;;;16.50;5.27;;;8.20;95.40;;;;;;4828277;29;20434;-78
2020/12/13 04:02:04;;;;;;;15.17;5.43;;;8.20;95.40;;;;;;4813289;29;20042;-78
2020/12/13 04:04:31;;;;;;;11.33;4.70;;;8.20;95.40;;;;;;4828768;29;20120;-78
2020/12/13 04:06:58;;;;;;;12.50;4.17;;;8.20;95.40;;;;;;4827912;29;20483;-78
2020/12/13 04:09:25;;;;;;;11.47;4.00;;;8.30;95.40;;;;;;4843226;29;20050;-78
2020/12/13 04:11:51;;;;;;;11.67;4.47;;;8.20;95.40;;;;;;4813050;29;20077;-78
2020/12/13 04:14:18;;;;;;;12.50;4.53;;;8.20;95.40;;;;;;4795002;29;20034;-78
2020/12/13 04:16:46;;;;;;;14.83;4.67;;;8.30;95.40;;;;;;4828192;29;20042;-78
2020/12/13 04:19:12;;;;;;;13.30;4.87;;;8.30;95.40;;;;;;4829623;29;20057;-78
2020/12/13 04:21:39;;;;;;;16.97;5.30;;;8.30;95.40;;;;;;4827832;29;20073;-78
2020/12/13 04:24:05;;;;;;;13.67;5.63;;;8.30;95.30;;;;;;4795888;29;20061;-79
2020/12/13 04:26:32;;;;;;;14.67;5.20;;;8.30;95.30;;;;;;4817569;29;20452;-78
2020/12/13 04:28:59;;;;;;;13.73;5.00;;;8.30;95.20;;;;;;4827752;29;20080;-78
2020/12/13 04:31:25;;;;;;;13.77;5.60;;;8.30;95.20;;;;;;4828070;29;20042;-78
2020/12/13 04:33:52;;;;;;;13.97;4.30;;;8.30;95.20;;;;;;4816212;29;20495;-78
2020/12/13 04:36:18;;;;;;;15.57;4.40;;;8.30;95.50;;;;;;4811401;29;20061;-78
2020/12/13 04:38:45;;;;;;;12.83;4.87;;;8.30;95.30;;;;;;4812081;29;20062;-78
2020/12/13 04:41:12;;;;;;;12.20;4.67;;;8.30;95.30;;;;;;4826692;29;20048;-78
2020/12/13 04:43:39;;;;;;;14.57;4.67;;;8.40;95.30;;;;;;4842460;29;20086;-78
2020/12/13 04:46:07;;;;;;;13.93;4.93;;;8.30;95.30;;;;;;4812424;29;20104;-78
2020/12/13 04:48:35;;;;;;;11.97;4.60;;;8.30;95.30;;;;;;4812492;29;20507;-78
2020/12/13 04:51:02;;;;;;;15.73;4.67;;;8.40;95.30;;;;;;4797466;29;20045;-79
2020/12/13 04:53:29;;;;;;;11.90;4.10;;;8.30;95.30;;;;;;4829697;29;20046;-78
2020/12/13 04:55:57;;;;;;;11.50;4.00;;;8.30;95.30;;;;;;4827457;29;20046;-78
2020/12/13 04:58:28;;;;;;;9.77;4.27;;;8.30;95.30;;;;;;4826887;29;20050;-78
2020/12/13 05:00:57;;;;;;;12.43;5.17;;;8.40;95.30;;;;;;4826863;29;20559;-78
2020/12/13 05:03:24;;;;;;;14.00;4.50;;;8.40;95.30;;;;;;4825943;29;20090;-78
2020/12/13 05:05:58;;;;;;;11.53;4.27;;;8.40;95.20;;;;;;4822462;29;20453;-78
2020/12/13 05:08:27;;;;;;;10.57;4.67;;;8.40;95.30;;;;;;4824045;29;20054;-78
2020/12/13 05:10:53;;;;;;;15.03;5.20;;;8.40;95.30;;;;;;4826583;29;20046;-78
2020/12/13 05:13:20;;;;;;;16.03;6.33;;;8.40;95.30;;;;;;4816736;29;20118;-78
2020/12/13 05:15:46;;;;;;;12.43;5.23;;;8.40;95.30;;;;;;4811635;29;20046;-78
2020/12/13 05:18:13;;;;;;;12.73;4.80;;;8.40;95.30;;;;;;4842982;29;20046;-78
2020/12/13 05:20:40;;;;;;;13.90;5.87;;;8.40;95.20;;;;;;4841716;29;20042;-78
2020/12/13 05:23:07;;;;;;;16.87;6.30;;;8.40;95.20;;;;;;4826677;29;20130;-78
2020/12/13 05:25:36;;;;;;;16.10;5.40;;;8.40;95.20;;;;;;4826901;29;20050;-78
2020/12/13 05:28:15;;;;;;;13.63;5.97;;;8.50;95.20;;;;;;4830231;29;20050;-78
2020/12/13 05:30:46;;;;;;;13.37;5.40;;;8.40;95.20;;;;;;4826341;29;20110;-78
2020/12/13 05:33:24;;;;;;;13.43;4.30;;;8.50;95.20;;;;;;4800965;29;20119;-78
2020/12/13 05:35:59;;;;;;;15.53;5.57;;;8.50;95.20;;;;;;4811130;29;20053;-78
2020/12/13 05:38:35;;;;;;;15.40;6.47;;;8.50;95.20;;;;;;4811589;29;20042;-77
2020/12/13 05:41:03;;;;;;;16.13;6.50;;;8.50;95.20;;;;;;4824796;29;20052;-77
2020/12/13 05:43:34;;;;;;;18.77;7.20;;;8.50;95.20;;;;;;4831618;29;20121;-77
2020/12/13 05:53:32;;;;;;;14.20;6.37;;;8.50;95.20;;;;;;4842736;29;20050;-78
2020/12/13 05:56:04;;;;;;;15.27;6.10;;;8.50;95.20;;;;;;4826435;29;20947;-78
2020/12/13 05:58:31;;;;;;;11.35;4.75;;;8.50;95.20;;;;;;4839347;29;20038;-78
2020/12/13 06:00:58;;;;;;;14.83;6.03;;;8.50;95.30;;;;;;4811131;29;20102;-76
2020/12/13 06:03:49;;;;;;;17.17;7.73;;;8.50;95.30;;;;;;4796170;29;20130;-76
2020/12/13 06:06:22;;;;;;;14.50;6.30;;;8.50;95.50;;;;;;4820309;29;20062;-78
2020/12/13 06:09:06;;;;;;;12.87;6.00;;;8.50;95.30;;;;;;4831631;29;20478;-78
2020/12/13 06:11:38;;;;;;;20.10;8.30;;;8.50;95.30;;;;;;4832749;29;20423;-79
2020/12/13 06:14:23;;;;;;;13.90;7.50;;;8.60;95.30;;;;;;4839482;29;20050;-79
2020/12/13 06:16:50;;;;;;;18.53;8.37;;;8.50;95.30;;;;;;4825740;29;20061;-78
2020/12/13 06:19:21;;;;;;;17.53;8.93;;;8.50;95.30;;;;;;4825128;29;20073;-79
2020/12/13 06:21:49;;;;;;;18.43;9.03;;;8.60;95.30;;;;;;4826143;29;20049;-79
2020/12/13 06:24:16;;;;;;;19.43;8.90;;;8.60;95.30;;;;;;4838443;29;20494;-79
2020/12/13 06:26:44;;;;;;;19.87;9.40;;;8.60;95.30;;;;;;4825605;29;20411;-79
2020/12/13 06:29:11;;;;;;;21.27;9.40;;;8.60;95.30;;;;;;4808489;29;20050;-79
2020/12/13 06:31:39;;;;;;;23.27;10.20;;;8.60;95.30;;;;;;4787284;29;20046;-79
2020/12/13 06:34:07;;;;;;;20.90;9.40;;;8.60;95.30;;;;;;4804901;29;20054;-78
2020/12/13 06:36:35;;;;;;;19.87;9.03;;;8.60;95.30;;;;;;4824987;29;20114;-78
2020/12/13 06:39:12;;;;;;;18.87;9.27;;;8.60;95.40;;;;;;4840864;29;20102;-78
2020/12/13 06:41:44;;;;;;;21.93;10.03;;;8.70;95.40;;;;;;4810357;29;20056;-78
2020/12/13 06:44:12;;;;;;;24.77;10.73;;;8.60;95.30;;;;;;4820052;29;20125;-78
2020/12/13 06:46:41;;;;;;;28.27;12.27;;;8.60;95.30;;;;;;4810610;29;20050;-78
2020/12/13 06:49:13;;;;;;;20.50;9.67;;;8.70;95.40;;;;;;4833497;29;20057;-78
2020/12/13 06:51:41;;;;;;;23.97;10.43;;;8.70;95.40;;;;;;4831917;29;20045;-78
2020/12/13 06:54:10;;;;;;;20.87;10.43;;;8.70;95.40;;;;;;4795407;29;20077;-79
2020/12/13 06:56:38;;;;;;;20.33;9.30;;;8.70;95.40;;;;;;4825720;29;20050;-78
2020/12/13 06:59:07;;;;;;;22.17;9.47;;;8.70;95.40;;;;;;4825844;29;20047;-79
2020/12/13 07:01:37;;;;;;;25.50;11.43;;;8.70;95.60;;;;;;4795720;29;20069;-79
2020/12/13 07:04:23;;;;;;;27.23;11.67;;;8.70;95.40;;;;;;4825632;29;20054;-79
2020/12/13 07:07:15;;;;;;;26.83;12.20;;;8.70;95.30;;;;;;4825116;29;20570;-79
2020/12/13 07:09:42;;;;;;;24.70;11.10;;;8.70;95.40;;;;;;4825175;29;20050;-79
2020/12/13 07:12:10;;;;;;;23.70;12.23;;;8.70;95.40;;;;;;4822308;29;20049;-79
2020/12/13 07:14:38;;;;;;;20.90;9.03;;;8.70;95.40;;;;;;4825351;29;20046;-79
2020/12/13 07:17:11;;;;;;;25.00;11.00;;;8.70;95.40;;;;;;4837918;29;20099;-79
2020/12/13 07:19:38;;;;;;;26.83;12.70;;;8.70;95.40;;;;;;4826708;29;20038;-77
2020/12/13 07:22:08;;;;;;;29.80;13.40;;;8.70;95.40;;;;;;4780676;29;20042;-77
2020/12/13 07:24:43;;;;;;;27.23;11.90;;;8.70;95.40;;;;;;4809654;29;20056;-77
2020/12/13 07:27:11;;;;;;;24.57;11.07;;;8.70;95.40;;;;;;4823445;29;20061;-77
2020/12/13 07:29:38;;;;;;;23.43;10.67;;;8.70;95.40;;;;;;4829004;29;20125;-77
2020/12/13 07:32:06;;;;;;;20.87;9.73;;;8.70;95.40;;;;;;4845166;29;20046;-76
2020/12/13 07:34:34;;;;;;;19.13;8.93;;;8.70;95.40;;;;;;4828698;29;20103;-77
2020/12/13 07:37:01;;;;;;;15.43;6.90;;;8.70;95.40;;;;;;4845161;29;20525;-77
2020/12/13 07:39:29;;;;;;;21.73;10.50;;;8.70;95.40;;;;;;4844914;29;20050;-77
2020/12/13 07:41:57;;;;;;;26.80;11.17;;;8.70;95.40;;;;;;4813620;29;20133;-77
2020/12/13 07:44:30;;;;;;;19.10;8.60;;;8.70;95.40;;;;;;4814394;29;20073;-77
2020/12/13 07:46:57;;;;;;;17.87;8.33;;;8.70;95.40;;;;;;4828448;29;20045;-77
2020/12/13 07:49:23;;;;;;;16.50;7.47;;;8.80;95.40;;;;;;4828635;29;20045;-77
2020/12/13 07:51:51;;;;;;;18.90;8.53;;;8.80;95.40;;;;;;4820945;29;20085;-77
2020/12/13 07:54:20;;;;;;;18.20;8.13;;;8.80;95.40;;;;;;4816729;29;20042;-77
2020/12/13 07:56:52;;;;;;;19.93;8.90;;;8.80;95.40;;;;;;4827470;29;20465;-77
2020/12/13 07:59:20;;;;;;;22.27;11.07;;;8.80;95.40;;;;;;4836249;29;20827;-77
2020/12/13 08:01:51;;;;;;;21.23;9.57;;;8.80;95.40;;;;;;4844696;29;20494;-77
2020/12/13 08:04:37;;;;;;;20.73;9.87;;;8.80;95.40;;;;;;4828115;29;20498;-77
2020/12/13 08:07:11;;;;;;;23.23;11.20;;;8.80;95.40;;;;;;4828193;29;20054;-77
2020/12/13 08:09:41;;;;;;;22.17;9.67;;;8.80;95.30;;;;;;4813656;29;20049;-77
2020/12/13 08:12:13;;;;;;;23.70;10.63;;;8.80;95.30;;;;;;4813633;29;20042;-77
2020/12/13 08:14:39;;;;;;;23.23;11.70;;;8.80;95.30;;;;;;4841011;29;20057;-76
2020/12/13 08:17:06;;;;;;;22.80;10.17;;;8.80;95.30;;;;;;4843772;29;20041;-76
2020/12/13 08:19:40;;;;;;;24.30;12.07;;;8.90;95.40;;;;;;4806289;29;20399;-76
2020/12/13 08:22:28;;;;;;;24.67;12.00;;;8.90;95.30;;;;;;4841967;29;20050;-78
2020/12/13 08:24:57;;;;;;;23.10;11.07;;;8.90;95.30;;;;;;4829820;29;20060;-78
2020/12/13 08:27:27;;;;;;;25.23;11.37;;;8.80;95.30;;;;;;4831971;29;20046;-78
2020/12/13 08:29:54;;;;;;;24.37;12.40;;;8.80;95.30;;;;;;4820841;29;20062;-78
2020/12/13 08:32:28;;;;;;;21.33;11.30;;;8.80;95.30;;;;;;4827942;29;20141;-78
2020/12/13 08:35:11;;;;;;;27.30;12.83;;;8.90;95.30;;;;;;4805982;29;20052;-78
2020/12/13 08:37:38;;;;;;;23.33;11.82;;;8.90;95.60;;;;;;4827478;29;20057;-78
2020/12/13 08:40:54;;;;;;;21.47;11.30;;;8.90;95.30;;;;;;4827797;29;20046;-77
2020/12/13 08:43:34;;;;;;;22.63;11.13;;;8.90;95.30;;;;;;4829156;29;20038;-77
2020/12/13 08:46:00;;;;;;;20.20;10.63;;;8.90;95.30;;;;;;4822588;29;20054;-76
2020/12/13 08:48:28;;;;;;;24.13;11.53;;;8.90;95.30;;;;;;4826814;29;20046;-77
2020/12/13 08:51:27;;;;;;;20.87;10.47;;;8.90;95.30;;;;;;4822781;29;20407;-75
2020/12/13 08:54:04;;;;;;;22.70;11.30;;;8.90;95.20;;;;;;4820520;29;20053;-76
2020/12/13 08:56:32;;;;;;;23.97;11.87;;;8.90;95.30;;;;;;4842835;29;20102;-76
2020/12/13 08:59:00;;;;;;;19.67;9.53;;;8.80;95.20;;;;;;4842181;29;20050;-75
2020/12/13 09:01:33;;;;;;;19.47;9.80;;;8.90;95.30;;;;;;4824293;29;20051;-75
2020/12/13 09:04:00;;;;;;;22.90;10.73;;;8.90;95.30;;;;;;4837219;29;20090;-75
2020/12/13 09:06:29;;;;;;;19.60;9.87;;;8.90;95.30;;;;;;4816806;29;20046;-76
2020/12/13 09:09:07;;;;;;;14.97;8.20;;;8.90;95.30;;;;;;4852384;29;20463;-76
2020/12/13 09:11:42;;;;;;;15.77;8.53;;;8.90;95.30;;;;;;4811653;29;20053;-79
2020/12/13 09:14:11;;;;;;;18.03;8.03;;;8.90;95.30;;;;;;4811678;29;20380;-75
2020/12/13 09:16:38;;;;;;;15.53;8.43;;;8.90;95.30;;;;;;4818383;29;20046;-75
2020/12/13 09:19:14;;;;;;;16.00;7.80;;;8.90;95.30;;;;;;4814326;29;20118;-75
2020/12/13 09:21:50;;;;;;;16.57;7.90;;;8.90;95.30;;;;;;4842200;29;20116;-75
2020/12/13 09:24:19;;;;;;;19.87;9.07;;;8.90;95.30;;;;;;4810081;29;20498;-75
2020/12/13 09:27:04;;;;;;;13.00;7.03;;;8.80;95.20;;;;;;4833434;29;20081;-75
2020/12/13 09:29:32;;;;;;;18.50;9.47;;;8.90;95.30;;;;;;4841633;29;20045;-75
2020/12/13 09:32:00;;;;;;;14.83;8.60;;;8.90;95.30;;;;;;4810692;29;20103;-75
2020/12/13 09:34:26;;;;;;;14.07;7.73;;;8.80;95.20;;;;;;4839560;29;20053;-75
2020/12/13 09:36:53;;;;;;;13.97;7.47;;;8.80;95.20;;;;;;4826132;29;20107;-75
2020/12/13 09:39:30;;;;;;;13.87;7.83;;;8.80;95.20;;;;;;4825414;29;20060;-74
2020/12/13 09:41:57;;;;;;;15.00;7.10;;;8.80;95.20;;;;;;4825587;29;20072;-75
2020/12/13 09:44:26;;;;;;;19.20;9.53;;;8.80;95.30;;;;;;4810210;29;20050;-75
2020/12/13 09:46:57;;;;;;;19.10;9.70;;;8.80;95.30;;;;;;4841242;29;20049;-75
2020/12/13 09:49:26;;;;;;;20.55;10.23;;;8.80;95.20;;;;;;4825126;29;20042;-74
2020/12/13 09:52:00;;;;;;;17.37;9.90;;;8.80;95.20;;;;;;4810421;29;20137;-76
2020/12/13 09:54:27;;;;;;;26.60;12.67;;;8.80;95.30;;;;;;4810644;29;20542;-76
2020/12/13 09:56:54;;;;;;;20.63;11.90;;;8.80;95.20;;;;;;4810597;29;20054;-76
2020/12/13 09:59:21;;;;;;;25.93;11.83;;;8.80;95.20;;;;;;4825520;29;20049;-76
2020/12/13 10:01:48;;;;;;;22.93;12.63;;;8.80;95.10;;;;;;4810487;29;20077;-76
2020/12/13 10:04:16;;;;;;;24.70;11.53;;;8.80;95.20;;;;;;4810066;29;20038;-76
2020/12/13 10:09:27;;;;;;;20.07;11.33;;;8.90;95.20;;;;;;4827179;29;20506;-74
2020/12/13 10:11:54;;;;;;;21.37;12.20;;;8.90;95.20;;;;;;4809846;29;20075;-74
2020/12/13 10:14:21;;;;;;;21.23;12.57;;;8.90;95.20;;;;;;4812452;29;20045;-74
2020/12/13 10:16:47;;;;;;;23.50;12.43;;;8.90;95.20;;;;;;4825206;29;20116;-74
2020/12/13 10:19:14;;;;;;;26.23;13.30;;;8.90;95.20;;;;;;4809344;29;20057;-74
2020/12/13 10:21:41;;;;;;;25.73;15.17;;;8.90;95.10;;;;;;4810964;29;20038;-76
2020/12/13 10:24:07;;;;;;;31.93;16.07;;;8.90;95.10;;;;;;4810753;29;20403;-76
2020/12/13 10:26:37;;;;;;;23.53;13.57;;;8.90;95.10;;;;;;4810909;29;20078;-80
2020/12/13 10:29:05;;;;;;;27.73;15.50;;;9.00;95.10;;;;;;4824449;29;20468;-79
2020/12/13 10:31:34;;;;;;;30.17;15.40;;;9.00;95.10;;;;;;4814853;29;20487;-78
2020/12/13 10:34:02;;;;;;;30.57;15.57;;;9.00;95.00;;;;;;4825863;29;20056;-79
2020/12/13 10:36:36;;;;;;;36.33;18.67;;;9.00;95.00;;;;;;4826324;29;20042;-79
2020/12/13 10:39:04;;;;;;;31.40;17.93;;;9.00;95.00;;;;;;4826229;29;20046;-79
2020/12/13 10:41:32;;;;;;;33.10;17.03;;;9.00;94.90;;;;;;4826058;29;20049;-78
2020/12/13 10:43:58;;;;;;;37.40;19.20;;;9.00;95.00;;;;;;4842317;29;20488;-78
2020/12/13 10:46:26;;;;;;;39.63;20.00;;;9.00;94.80;;;;;;4840817;29;20077;-79
2020/12/13 10:48:53;;;;;;;36.23;18.40;;;9.00;94.90;;;;;;4826181;29;20065;-78
2020/12/13 10:51:19;;;;;;;28.87;16.20;;;9.00;94.90;;;;;;4825650;29;20050;-78
2020/12/13 10:53:47;;;;;;;35.23;18.63;;;9.10;94.90;;;;;;4810798;29;20474;-78
2020/12/13 10:56:14;;;;;;;32.33;18.27;;;9.10;94.80;;;;;;4825728;29;20456;-78
2020/12/13 10:58:43;;;;;;;29.03;16.87;;;9.10;94.80;;;;;;4842443;29;20038;-78
2020/12/13 11:01:10;;;;;;;23.40;13.23;;;9.10;94.80;;;;;;4842530;29;20057;-78
2020/12/13 11:03:37;;;;;;;22.83;12.90;;;9.20;94.80;;;;;;4845484;29;20525;-79
2020/12/13 11:06:07;;;;;;;27.50;15.03;;;9.20;94.80;;;;;;4845750;29;20490;-81
2020/12/13 11:08:33;;;;;;;23.60;11.53;;;9.30;94.80;;;;;;4828613;29;20050;-80
2020/12/13 11:10:59;;;;;;;21.63;11.90;;;9.30;94.70;;;;;;4845271;29;20053;-82
2020/12/13 11:13:26;;;;;;;22.33;13.20;;;9.40;94.80;;;;;;4824671;29;20550;-84
2020/12/13 11:15:52;;;;;;;19.67;12.20;;;9.40;94.70;;;;;;4828792;29;20046;-82
2020/12/13 11:18:19;;;;;;;18.77;10.73;;;9.40;94.70;;;;;;4813797;29;20095;-78
2020/12/13 11:20:49;;;;;;;19.90;10.40;;;9.50;94.70;;;;;;4817420;29;20386;-79
2020/12/13 11:23:17;;;;;;;17.53;9.67;;;9.50;94.70;;;;;;4805986;29;20057;-79
2020/12/13 11:25:44;;;;;;;17.33;9.97;;;9.50;94.60;;;;;;4813801;29;20583;-79
2020/12/13 11:28:10;;;;;;;23.90;12.80;;;9.60;94.60;;;;;;4813967;29;20102;-83
2020/12/13 11:30:36;;;;;;;21.77;14.40;;;9.60;94.50;;;;;;4828710;29;20072;-77
2020/12/13 11:33:03;;;;;;;22.00;13.50;;;9.50;94.40;;;;;;4845380;29;20136;-79
2020/12/13 11:35:30;;;;;;;22.97;14.00;;;9.50;94.30;;;;;;4822973;29;20038;-76
2020/12/13 11:37:56;;;;;;;22.57;13.60;;;9.50;94.30;;;;;;4814298;29;20094;-75
2020/12/13 11:40:23;;;;;;;17.13;11.20;;;9.50;94.20;;;;;;4843879;29;20077;-76
2020/12/13 11:42:50;;;;;;;20.17;12.37;;;9.50;94.30;;;;;;4814982;29;20093;-76
2020/12/13 11:45:16;;;;;;;16.53;11.27;;;9.50;94.30;;;;;;4845415;29;20091;-76
2020/12/13 11:47:43;;;;;;;17.67;10.00;;;9.50;94.20;;;;;;4853015;29;20050;-73
2020/12/13 11:50:11;;;;;;;17.83;9.67;;;9.60;94.20;;;;;;4829558;29;20512;-74
2020/12/13 11:52:41;;;;;;;16.57;10.10;;;9.60;94.20;;;;;;4847591;29;20507;-73
2020/12/13 11:55:08;;;;;;;17.10;9.53;;;9.50;94.10;;;;;;4844597;29;20038;-73
2020/12/13 11:57:35;;;;;;;16.33;9.33;;;9.50;94.00;;;;;;4813243;29;20041;-78
2020/12/13 12:00:16;;;;;;;16.37;8.77;;;9.50;93.90;;;;;;4843214;29;20568;-76
2020/12/13 12:02:48;;;;;;;11.25;7.05;;;9.50;94.00;;;;;;4834335;29;20046;-81
2020/12/13 12:05:14;;;;;;;11.33;7.20;;;9.50;94.10;;;;;;4814838;29;20054;-77
2020/12/13 12:07:41;;;;;;;11.57;7.53;;;9.50;94.00;;;;;;4843840;29;20064;-76
2020/12/13 12:10:07;;;;;;;11.47;6.83;;;9.50;93.80;;;;;;4829800;29;20129;-77
2020/12/13 12:12:34;;;;;;;13.73;7.10;;;9.50;93.80;;;;;;4796564;29;20478;-84
2020/12/13 12:15:01;;;;;;;12.20;6.33;;;9.50;93.70;;;;;;4811850;29;20145;-81
2020/12/13 12:17:27;;;;;;;12.57;5.70;;;9.50;93.80;;;;;;4796621;29;20451;-76
2020/12/13 12:19:54;;;;;;;8.03;5.13;;;9.50;93.80;;;;;;4811130;29;20507;-76
2020/12/13 12:22:20;;;;;;;7.87;5.27;;;9.40;93.70;;;;;;4843508;29;20098;-79
2020/12/13 12:24:47;;;;;;;12.77;5.67;;;9.40;93.80;;;;;;4827448;29;20574;-76
2020/12/13 12:27:13;;;;;;;11.53;6.00;;;9.30;93.50;;;;;;4824700;29;20129;-76
2020/12/13 12:29:41;;;;;;;9.10;4.13;;;9.30;93.50;;;;;;4800871;29;20058;-79
2020/12/13 12:32:09;;;;;;;6.83;4.30;;;9.30;93.60;;;;;;4815354;29;20133;-80
2020/12/13 12:34:37;;;;;;;8.00;3.70;;;9.20;93.70;;;;;;4826034;29;20053;-77
2020/12/13 12:37:06;;;;;;;10.07;4.33;;;9.30;93.70;;;;;;4834193;29;20085;-76
2020/12/13 12:39:33;;;;;;;9.33;4.40;;;9.20;93.50;;;;;;4829945;29;20050;-76
2020/12/13 12:42:02;;;;;;;5.53;3.83;;;9.20;93.80;;;;;;4828550;29;20049;-81
2020/12/13 12:44:28;;;;;;;6.27;3.57;;;9.10;93.50;;;;;;4798069;29;20038;-77
2020/12/13 12:46:58;;;;;;;4.40;2.40;;;9.10;93.60;;;;;;4785005;29;20101;-77
2020/12/13 12:49:25;;;;;;;4.70;2.97;;;9.00;93.70;;;;;;4831281;29;20046;-77
2020/12/13 12:51:52;;;;;;;6.17;3.17;;;8.90;93.80;;;;;;4853426;29;20042;-77
2020/12/13 12:54:20;;;;;;;4.67;1.97;;;8.90;93.80;;;;;;4788337;29;20064;-77
2020/12/13 12:56:52;;;;;;;3.03;2.10;;;8.90;94.00;;;;;;4843884;29;20046;-75
2020/12/13 12:59:24;;;;;;;2.93;1.70;;;8.90;94.00;;;;;;4812222;29;20053;-75
2020/12/13 13:01:54;;;;;;;8.10;2.38;;;8.90;94.00;;;;;;4812072;29;20050;-75